Time;durP1;ratioP1;P1;durP2;ratioP2;P2;SDS_P1;SDS_P2;PMS_P1;PMS_P2;Temp;Humidity;BMP_temperature;BMP_pressure;BME280_temperature;BME280_humidity;BME280_pressure;Samples;Min_cycle;Max_cycle;Signal;HPM_P1;HPM_P2
2022/11/26 00:00:30;;;;;;;6.75;2.83;;;;;;;3.21;73.47;100758.42;1772412;79;21194;-60
2022/11/26 00:02:57;;;;;;;10.32;3.25;;;;;;;3.21;73.52;100764.48;1761035;79;21252;-60
2022/11/26 00:05:24;;;;;;;6.00;2.17;;;;;;;3.11;73.93;100764.03;1754839;80;21074;-60
2022/11/26 00:07:55;;;;;;;7.95;3.83;;;;;;;3.12;73.94;100766.17;1724478;81;21079;-60
2022/11/26 00:10:30;;;;;;;6.97;2.87;;;;;;;3.07;74.18;100777.22;1741063;81;21576;-60
2022/11/26 00:12:56;;;;;;;7.30;3.05;;;;;;;3.09;74.14;100767.16;1760697;80;21034;-61
2022/11/26 00:15:27;;;;;;;5.85;2.37;;;;;;;3.15;73.96;100764.28;1763022;80;21861;-61
2022/11/26 00:17:53;;;;;;;7.03;3.08;;;;;;;3.14;74.02;100769.11;1740287;81;21551;-60
2022/11/26 00:20:24;;;;;;;8.10;2.62;;;;;;;3.09;74.07;100769.77;1749860;80;21086;-60
2022/11/26 00:22:57;;;;;;;6.55;2.55;;;;;;;3.03;74.22;100770.02;1761641;81;21496;-60
2022/11/26 00:25:34;;;;;;;5.72;2.40;;;;;;;3.06;74.23;100776.39;1764414;80;21539;-60
2022/11/26 00:28:01;;;;;;;6.15;2.95;;;;;;;3.11;74.20;100773.14;1693346;82;21832;-61
2022/11/26 00:30:28;;;;;;;6.50;2.58;;;;;;;3.17;74.13;100778.52;1753822;80;21032;-61
2022/11/26 00:32:55;;;;;;;8.33;3.42;;;;;;;3.14;74.35;100772.14;1764062;81;21572;-60
2022/11/26 00:35:22;;;;;;;7.67;3.08;;;;;;;3.14;74.42;100775.61;1763664;80;21549;-60
2022/11/26 00:37:54;;;;;;;6.92;2.50;;;;;;;3.14;74.46;100774.74;1743066;81;21036;-60
2022/11/26 00:40:30;;;;;;;5.92;2.70;;;;;;;3.20;74.27;100776.26;1761165;80;21048;-60
2022/11/26 00:42:57;;;;;;;5.62;1.95;;;;;;;3.23;74.08;100776.09;1757482;79;26720;-60
2022/11/26 00:45:27;;;;;;;5.20;2.50;;;;;;;3.22;74.13;100773.96;1753322;80;21130;-61
2022/11/26 00:47:56;;;;;;;5.75;2.98;;;;;;;3.19;74.10;100776.69;1761336;81;21106;-60
2022/11/26 00:50:24;;;;;;;6.95;3.15;;;;;;;3.12;74.32;100778.70;1757986;80;21047;-60
2022/11/26 00:52:53;;;;;;;5.58;2.52;;;;;;;3.09;74.42;100773.66;1754604;80;21254;-60
2022/11/26 00:55:33;;;;;;;6.20;2.02;;;;;;;3.16;74.31;100778.98;1758365;81;21624;-61
2022/11/26 00:58:01;;;;;;;6.62;2.60;;;;;;;3.21;74.23;100772.72;1759368;80;21107;-60
2022/11/26 01:00:32;;;;;;;6.65;2.90;;;;;;;3.21;74.33;100775.33;1755670;80;21468;-61
2022/11/26 01:02:59;;;;;;;8.90;2.55;;;;;;;3.18;74.42;100775.02;1754927;81;22172;-61
2022/11/26 01:05:32;;;;;;;5.45;2.58;;;;;;;3.13;74.45;100772.61;1761284;80;22095;-61
2022/11/26 01:08:01;;;;;;;5.20;2.40;;;;;;;3.14;74.48;100776.91;1754186;81;20991;-60
2022/11/26 01:10:28;;;;;;;6.37;2.33;;;;;;;3.16;74.23;100774.21;1751575;80;21000;-61
2022/11/26 01:12:55;;;;;;;6.30;2.62;;;;;;;3.17;74.17;100773.31;1760918;80;21557;-60
2022/11/26 01:15:23;;;;;;;9.75;2.85;;;;;;;3.15;74.28;100779.87;1760938;80;21623;-61
2022/11/26 01:17:51;;;;;;;6.00;2.30;;;;;;;3.16;74.23;100776.38;1759714;81;21252;-60
2022/11/26 01:20:27;;;;;;;6.67;3.37;;;;;;;3.19;74.21;100779.75;1761808;81;21039;-60
2022/11/26 01:22:56;;;;;;;7.10;2.77;;;;;;;3.23;74.13;100773.06;1754815;81;21019;-59
2022/11/26 01:25:23;;;;;;;7.15;3.20;;;;;;;3.31;74.16;100777.48;1758167;80;21023;-60
2022/11/26 01:27:50;;;;;;;8.20;3.27;;;;;;;3.36;74.17;100770.75;1757045;81;21133;-60
2022/11/26 01:30:24;;;;;;;9.80;6.30;;;;;;;3.38;74.29;100768.95;1686848;84;21247;-59
2022/11/26 01:32:50;;;;;;;5.72;2.30;;;;;;;3.33;74.72;100774.81;1752788;80;21058;-59
2022/11/26 01:35:18;;;;;;;6.12;3.10;;;;;;;3.34;74.79;100774.72;1761327;80;21091;-59
2022/11/26 01:37:44;;;;;;;8.23;3.00;;;;;;;3.40;74.55;100772.33;1758795;80;21063;-59
2022/11/26 01:40:45;;;;;;;10.55;3.17;;;;;;;3.47;74.29;100778.10;1757405;80;21027;-60
2022/11/26 01:43:26;;;;;;;9.45;2.70;;;;;;;3.54;74.11;100773.84;1755670;80;21262;-59
2022/11/26 01:45:54;;;;;;;7.75;3.65;;;;;;;3.66;74.02;100774.22;1761715;80;21000;-60
2022/11/26 01:48:30;;;;;;;8.70;3.75;;;;;;;3.70;73.90;100780.52;1756249;80;21484;-62
2022/11/26 01:51:10;;;;;;;6.90;3.65;;;;;;;3.70;73.86;100773.19;1757962;80;21043;-62
2022/11/26 01:53:51;;;;;;;10.28;4.03;;;;;;;3.68;73.69;100782.36;1758234;79;21078;-61
2022/11/26 01:56:40;;;;;;;6.92;3.02;;;;;;;3.65;73.50;100780.36;1730107;81;22087;-59
2022/11/26 01:59:24;;;;;;;7.05;3.47;;;;;;;3.65;73.22;100778.59;1754545;79;21416;-60
2022/11/26 02:01:53;;;;;;;6.43;3.13;;;;;;;3.68;72.96;100782.36;1754647;80;21055;-61
2022/11/26 02:04:27;;;;;;;7.33;3.75;;;;;;;3.63;73.01;100787.36;1761891;80;21098;-60
2022/11/26 02:06:54;;;;;;;9.25;3.70;;;;;;;3.58;73.08;100785.42;1759609;79;21054;-60
2022/11/26 02:09:21;;;;;;;13.15;5.00;;;;;;;3.53;73.21;100781.72;1770440;79;22003;-60
2022/11/26 02:11:48;;;;;;;5.97;2.30;;;;;;;3.57;73.16;100782.45;1772030;79;21050;-60
2022/11/26 02:14:26;;;;;;;7.87;3.55;;;;;;;3.61;73.23;100793.09;1761807;79;21047;-61
2022/11/26 02:17:07;;;;;;;10.35;2.72;;;;;;;3.62;73.43;100801.30;1760410;80;21062;-61
2022/11/26 02:19:49;;;;;;;9.25;3.35;;;;;;;3.62;73.51;100809.11;1741505;79;20996;-61
2022/11/26 02:26:16;;;;;;;7.03;3.33;;;;;;;3.61;73.53;100807.41;1614977;87;21136;-56
2022/11/26 02:29:14;;;;;;;6.12;1.98;;;;;;;3.70;73.25;100813.52;1651590;85;21670;-55
2022/11/26 02:32:10;;;;;;;9.80;5.50;;;;;;;3.73;73.21;100822.47;1657142;85;21141;-56
2022/11/26 02:35:03;;;;;;;8.40;3.05;;;;;;;3.71;73.34;100824.30;1641996;85;22688;-55
2022/11/26 02:37:49;;;;;;;6.05;2.47;;;;;;;3.67;73.23;100824.91;1605416;87;23372;-54
2022/11/26 02:40:16;;;;;;;8.03;3.25;;;;;;;3.74;73.10;100825.94;1655011;85;21085;-55
2022/11/26 02:42:44;;;;;;;8.55;3.12;;;;;;;3.78;73.16;100828.31;1641740;85;21156;-55
2022/11/26 02:45:15;;;;;;;7.67;3.00;;;;;;;3.78;73.24;100827.48;1650929;85;21087;-56
2022/11/26 02:47:43;;;;;;;5.90;2.62;;;;;;;3.78;73.30;100832.22;1647570;85;21597;-56
2022/11/26 02:50:18;;;;;;;4.72;2.12;;;;;;;3.75;73.12;100826.31;1648608;85;21199;-56
2022/11/26 02:52:44;;;;;;;11.25;4.75;;;;;;;3.76;72.89;100826.71;1648482;85;21127;-56
2022/11/26 02:55:12;;;;;;;5.40;2.10;;;;;;;3.80;72.57;100831.72;1650906;85;21105;-55
2022/11/26 02:57:46;;;;;;;4.72;2.25;;;;;;;3.76;72.51;100829.31;1651218;85;21159;-56
2022/11/26 03:00:14;;;;;;;6.10;2.30;;;;;;;3.71;72.54;100833.41;1650571;85;21105;-55
2022/11/26 03:02:47;;;;;;;7.58;2.98;;;;;;;3.62;72.74;100835.97;1652095;85;21102;-55
2022/11/26 03:05:15;;;;;;;6.72;2.50;;;;;;;3.60;72.68;100836.94;1641638;85;21096;-55
2022/11/26 03:07:42;;;;;;;5.25;2.33;;;;;;;3.63;72.63;100842.02;1656012;85;21108;-56
2022/11/26 03:10:09;;;;;;;8.63;4.42;;;;;;;3.65;72.71;100841.05;1645420;85;21093;-55
2022/11/26 03:12:36;;;;;;;3.72;1.70;;;;;;;3.64;72.95;100845.02;1648407;85;21541;-55
2022/11/26 03:15:03;;;;;;;6.50;2.25;;;;;;;3.64;72.97;100850.22;1642846;85;23055;-56
2022/11/26 03:17:30;;;;;;;5.67;1.90;;;;;;;3.59;73.00;100840.00;1637719;85;21579;-55
2022/11/26 03:19:56;;;;;;;4.70;1.90;;;;;;;3.51;73.16;100833.85;1612785;87;22495;-56
2022/11/26 03:22:23;;;;;;;6.55;1.70;;;;;;;3.61;73.00;100839.47;1642872;85;21352;-56
2022/11/26 03:24:50;;;;;;;7.65;2.95;;;;;;;3.62;72.83;100829.94;1637613;85;22256;-56
2022/11/26 03:27:16;;;;;;;7.70;3.85;;;;;;;3.59;72.81;100843.07;1637911;85;21547;-56
2022/11/26 03:29:42;;;;;;;2.40;0.90;;;;;;;3.52;73.00;100838.13;1641590;85;21525;-56
2022/11/26 03:32:09;;;;;;;6.30;1.82;;;;;;;3.51;73.20;100837.75;1647576;85;21068;-55
2022/11/26 03:34:35;;;;;;;5.50;1.40;;;;;;;3.58;73.17;100847.88;1639351;85;21398;-55
2022/11/26 03:37:02;;;;;;;3.83;1.37;;;;;;;3.57;73.12;100847.50;1650135;85;21123;-55
2022/11/26 03:39:28;;;;;;;5.00;1.72;;;;;;;3.58;73.12;100846.58;1652287;85;21389;-55
2022/11/26 03:41:55;;;;;;;4.60;1.47;;;;;;;3.52;73.29;100851.13;1646517;85;21133;-55
2022/11/26 03:44:21;;;;;;;4.87;2.05;;;;;;;3.46;73.46;100846.22;1655015;85;21120;-56
2022/11/26 03:46:48;;;;;;;4.87;1.98;;;;;;;3.50;73.39;100856.87;1610116;88;21088;-56
2022/11/26 03:49:15;;;;;;;3.45;1.30;;;;;;;3.54;73.37;100853.67;1654044;85;21062;-55
2022/11/26 03:51:41;;;;;;;5.62;2.30;;;;;;;3.57;73.36;100857.45;1640758;85;21218;-56
2022/11/26 03:54:08;;;;;;;4.47;1.20;;;;;;;3.54;73.50;100857.11;1646280;85;21109;-56
2022/11/26 03:56:36;;;;;;;4.15;1.40;;;;;;;3.53;73.55;100858.04;1639729;85;21128;-56
2022/11/26 03:59:02;;;;;;;3.75;1.30;;;;;;;3.52;73.59;100868.51;1646858;85;21148;-56
2022/11/26 04:01:29;;;;;;;5.00;2.25;;;;;;;3.51;73.49;100866.81;1641004;85;21547;-56
2022/11/26 04:03:56;;;;;;;4.37;1.90;;;;;;;3.57;73.22;100863.95;1631566;85;21569;-56
2022/11/26 04:06:23;;;;;;;3.75;1.27;;;;;;;3.61;73.02;100868.09;1639322;85;21085;-55
2022/11/26 04:08:50;;;;;;;8.55;2.62;;;;;;;3.59;73.12;100869.09;1645505;85;21112;-55
2022/11/26 04:11:17;;;;;;;5.12;1.52;;;;;;;3.56;73.32;100873.12;1645576;85;21121;-54
2022/11/26 04:13:44;;;;;;;4.58;1.45;;;;;;;3.55;73.38;100867.08;1633028;85;21114;-55
2022/11/26 04:16:11;;;;;;;3.83;1.32;;;;;;;3.56;73.13;100871.83;1634001;86;22652;-55
2022/11/26 04:18:37;;;;;;;4.37;1.32;;;;;;;3.59;73.08;100869.09;1638125;85;21045;-55
2022/11/26 04:21:06;;;;;;;6.28;2.05;;;;;;;3.60;73.03;100869.47;1638878;85;21128;-55
2022/11/26 04:23:34;;;;;;;4.28;1.50;;;;;;;3.54;73.17;100870.12;1644842;85;21084;-55
2022/11/26 04:26:00;;;;;;;6.20;2.62;;;;;;;3.49;73.38;100870.77;1607770;87;21149;-55
2022/11/26 04:28:28;;;;;;;4.30;1.15;;;;;;;3.45;73.63;100880.10;1648578;85;22218;-56
2022/11/26 04:30:55;;;;;;;5.53;1.45;;;;;;;3.47;73.69;100873.91;1645769;85;21562;-55
2022/11/26 04:33:21;;;;;;;4.33;1.85;;;;;;;3.52;73.48;100876.31;1646723;85;21510;-55
2022/11/26 04:35:49;;;;;;;4.12;1.40;;;;;;;3.56;73.40;100884.83;1655421;85;21109;-56
2022/11/26 04:38:16;;;;;;;4.35;1.55;;;;;;;3.51;73.51;100878.52;1653873;85;21530;-57
2022/11/26 04:40:43;;;;;;;6.80;2.35;;;;;;;3.48;73.58;100886.02;1655692;85;22066;-55
2022/11/26 04:43:09;;;;;;;4.30;1.55;;;;;;;3.47;73.69;100883.01;1663757;85;21022;-56
2022/11/26 04:45:36;;;;;;;4.67;1.70;;;;;;;3.46;73.65;100887.84;1660143;86;21340;-55
2022/11/26 04:48:04;;;;;;;4.10;1.42;;;;;;;3.51;73.54;100887.19;1606229;87;21136;-54
2022/11/26 04:50:31;;;;;;;4.08;1.60;;;;;;;3.57;73.32;100894.34;1646358;85;21115;-54
2022/11/26 04:52:58;;;;;;;6.62;2.62;;;;;;;3.52;73.38;100896.66;1655910;85;21222;-54
2022/11/26 04:55:25;;;;;;;15.58;1.67;;;;;;;3.50;73.66;100898.96;1667484;85;21054;-55
2022/11/26 04:57:51;;;;;;;4.37;1.57;;;;;;;3.50;73.71;100907.60;1646838;85;21037;-55
2022/11/26 05:00:19;;;;;;;5.67;1.17;;;;;;;3.56;73.58;100910.85;1648508;85;21069;-54
2022/11/26 05:02:45;;;;;;;6.67;2.00;;;;;;;3.62;73.38;100904.94;1654527;85;21123;-54
2022/11/26 05:05:12;;;;;;;3.40;1.30;;;;;;;3.71;73.36;100908.89;1659356;85;21259;-55
2022/11/26 05:07:39;;;;;;;4.08;1.32;;;;;;;3.75;73.31;100915.67;1652235;85;21073;-54
2022/11/26 05:10:07;;;;;;;3.55;1.47;;;;;;;3.74;73.46;100916.58;1645563;85;21136;-54
2022/11/26 05:12:34;;;;;;;4.87;2.12;;;;;;;3.75;73.34;100922.19;1641225;85;21124;-57
2022/11/26 05:17:43;;;;;;;4.92;1.80;;;;;;;3.71;73.53;100918.00;1793277;77;22734;-61
2022/11/26 05:20:13;;;;;;;4.87;0.98;;;;;;;3.84;72.89;100925.67;1776015;78;20963;-61
2022/11/26 05:22:40;;;;;;;5.45;2.00;;;;;;;3.88;72.66;100926.39;1776062;78;21829;-61
2022/11/26 05:25:08;;;;;;;3.77;1.47;;;;;;;3.91;72.69;100930.16;1764381;78;20970;-61
2022/11/26 05:27:35;;;;;;;3.30;0.90;;;;;;;3.91;72.68;100935.37;1772579;78;21081;-61
2022/11/26 05:30:03;;;;;;;2.55;0.90;;;;;;;3.86;72.64;100928.22;1770022;78;21019;-61
2022/11/26 05:32:30;;;;;;;2.10;0.80;;;;;;;3.81;72.51;100928.41;1764009;80;21090;-62
2022/11/26 05:34:56;;;;;;;4.78;1.40;;;;;;;3.81;72.31;100932.78;1774223;78;21229;-61
2022/11/26 05:37:23;;;;;;;7.30;2.02;;;;;;;3.83;72.21;100932.25;1779647;78;21047;-61
2022/11/26 05:39:50;;;;;;;3.17;1.12;;;;;;;3.84;72.30;100935.25;1759407;80;21548;-61
2022/11/26 05:42:17;;;;;;;4.37;1.67;;;;;;;3.83;72.45;100934.42;1770624;78;21109;-61
2022/11/26 05:44:44;;;;;;;2.67;0.93;;;;;;;3.79;72.65;100935.91;1765459;78;21074;-61
2022/11/26 05:47:10;;;;;;;2.45;0.98;;;;;;;3.77;72.69;100930.77;1771538;80;21586;-61
2022/11/26 05:49:36;;;;;;;4.87;1.85;;;;;;;3.75;72.73;100935.63;1729290;81;21130;-60
2022/11/26 05:52:04;;;;;;;4.55;1.05;;;;;;;3.74;72.53;100943.07;1732077;81;21543;-60
2022/11/26 05:54:30;;;;;;;3.27;0.85;;;;;;;3.77;72.41;100937.27;1715750;81;21846;-60
2022/11/26 05:56:57;;;;;;;6.05;1.98;;;;;;;3.77;72.42;100940.34;1713705;81;21196;-60
2022/11/26 05:59:24;;;;;;;5.25;2.25;;;;;;;3.74;72.63;100943.07;1745321;80;21159;-60
2022/11/26 06:01:50;;;;;;;3.15;0.95;;;;;;;3.74;72.84;100950.88;1711183;83;21051;-61
2022/11/26 06:04:17;;;;;;;3.85;0.82;;;;;;;3.72;72.92;100949.64;1709182;83;22163;-61
2022/11/26 06:06:44;;;;;;;3.60;0.80;;;;;;;3.74;72.72;100956.92;1692434;83;22140;-61
2022/11/26 06:09:11;;;;;;;4.80;1.17;;;;;;;3.78;72.52;100958.94;1688736;83;20981;-61
2022/11/26 06:11:37;;;;;;;5.45;2.05;;;;;;;3.79;72.54;100964.08;1704159;81;21969;-61
2022/11/26 06:14:04;;;;;;;3.58;1.42;;;;;;;3.77;72.78;100968.52;1716959;81;21059;-61
2022/11/26 06:16:31;;;;;;;3.65;1.27;;;;;;;3.76;72.89;100973.31;1720965;82;21005;-61
2022/11/26 06:18:58;;;;;;;5.40;1.50;;;;;;;3.72;72.92;100979.58;1762701;80;21098;-61
2022/11/26 06:21:24;;;;;;;5.05;1.65;;;;;;;3.70;72.96;100981.40;1758194;80;21011;-60
2022/11/26 06:23:51;;;;;;;3.30;1.05;;;;;;;3.70;72.92;100981.40;1759788;80;21230;-60
2022/11/26 06:26:17;;;;;;;3.12;1.07;;;;;;;3.78;72.83;100980.59;1762136;80;20999;-60
2022/11/26 06:28:45;;;;;;;5.62;1.57;;;;;;;3.84;72.61;100979.05;1758900;80;21014;-60
2022/11/26 06:31:12;;;;;;;5.78;1.80;;;;;;;3.84;72.72;100979.05;1757979;79;21114;-60
2022/11/26 06:33:38;;;;;;;4.15;1.47;;;;;;;3.85;72.75;100977.28;1763108;80;21051;-59
2022/11/26 06:36:06;;;;;;;4.45;1.42;;;;;;;3.82;72.69;100976.97;1692720;82;21160;-60
2022/11/26 06:38:33;;;;;;;6.40;3.47;;;;;;;3.79;72.77;100977.09;1753981;80;21064;-60
2022/11/26 06:41:01;;;;;;;5.70;1.72;;;;;;;3.82;72.61;100976.97;1754091;80;21729;-59
2022/11/26 06:43:29;;;;;;;6.10;3.10;;;;;;;3.87;72.41;100977.62;1766714;80;21099;-60
2022/11/26 06:46:03;;;;;;;5.50;2.08;;;;;;;3.89;72.49;100982.30;1715089;82;21027;-61
2022/11/26 06:48:30;;;;;;;5.15;1.52;;;;;;;3.89;72.77;100986.67;1757337;79;21879;-60
2022/11/26 06:50:59;;;;;;;4.53;1.65;;;;;;;3.88;72.64;100993.64;1760335;80;20999;-60
2022/11/26 06:53:25;;;;;;;6.35;2.22;;;;;;;3.81;72.79;100993.48;1760664;79;21067;-60
2022/11/26 06:55:52;;;;;;;5.42;1.82;;;;;;;3.79;72.79;100991.88;1750619;80;21153;-60
2022/11/26 06:58:19;;;;;;;6.10;2.00;;;;;;;3.71;72.78;100988.28;1750912;79;21114;-60
2022/11/26 07:00:46;;;;;;;5.47;2.08;;;;;;;3.76;72.76;100992.84;1735385;80;21235;-61
2022/11/26 07:03:12;;;;;;;4.35;1.80;;;;;;;3.82;72.62;100995.19;1763987;79;21561;-61
2022/11/26 07:05:39;;;;;;;11.15;6.40;;;;;;;3.89;72.73;101000.52;1760694;80;21068;-60
2022/11/26 07:08:06;;;;;;;10.28;3.75;;;;;;;3.93;72.89;101001.23;1750523;79;21031;-63
2022/11/26 07:10:32;;;;;;;9.48;5.47;;;;;;;3.88;72.71;101009.27;1757688;80;21069;-61
2022/11/26 07:12:59;;;;;;;10.90;5.75;;;;;;;3.84;72.72;101011.59;1756614;79;21881;-61
2022/11/26 07:15:26;;;;;;;13.55;8.15;;;;;;;3.77;72.47;101014.53;1755802;80;21579;-63
2022/11/26 07:17:52;;;;;;;6.25;3.05;;;;;;;3.66;72.50;101012.35;1755185;80;21603;-61
2022/11/26 07:20:19;;;;;;;7.65;2.70;;;;;;;3.62;72.52;101017.30;1759574;79;21062;-61
2022/11/26 07:22:46;;;;;;;8.00;4.53;;;;;;;3.62;72.53;101017.30;1762115;80;21081;-64
2022/11/26 07:25:13;;;;;;;6.80;2.85;;;;;;;3.68;72.66;101017.03;1768904;79;21229;-61
2022/11/26 07:27:39;;;;;;;7.00;2.72;;;;;;;3.78;72.98;101020.95;1762198;79;21527;-62
2022/11/26 07:30:08;;;;;;;6.25;2.37;;;;;;;3.87;73.04;101019.73;1762888;79;21082;-62
2022/11/26 07:32:35;;;;;;;5.87;2.65;;;;;;;3.91;72.98;101019.52;1760538;80;21044;-64
2022/11/26 07:35:04;;;;;;;7.58;4.83;;;;;;;3.93;72.75;101013.42;1764550;79;21116;-62
2022/11/26 07:37:32;;;;;;;7.47;2.40;;;;;;;3.94;72.59;101022.94;1758560;80;21859;-62
2022/11/26 07:39:59;;;;;;;8.95;4.97;;;;;;;3.91;72.35;101019.52;1763728;79;21094;-62
2022/11/26 07:42:25;;;;;;;6.25;2.70;;;;;;;3.96;72.22;101011.99;1767072;79;21034;-64
2022/11/26 07:44:51;;;;;;;6.42;2.75;;;;;;;3.99;72.21;101015.30;1749606;80;21116;-62
2022/11/26 07:47:18;;;;;;;8.93;4.75;;;;;;;3.98;72.28;101017.97;1707931;82;21067;-62
2022/11/26 07:49:44;;;;;;;8.95;5.45;;;;;;;3.97;72.21;101026.25;1762149;79;21251;-63
2022/11/26 07:52:11;;;;;;;5.35;2.60;;;;;;;3.96;72.29;101024.55;1774016;80;21014;-62
2022/11/26 07:54:38;;;;;;;7.72;3.33;;;;;;;3.98;72.15;101021.88;1771934;79;21031;-61
2022/11/26 07:57:04;;;;;;;9.93;6.05;;;;;;;4.01;71.90;101024.36;1711412;83;21142;-62
2022/11/26 07:59:30;;;;;;;7.08;3.15;;;;;;;4.01;71.89;101032.17;1769011;79;21111;-62
2022/11/26 08:01:57;;;;;;;5.00;2.37;;;;;;;3.94;71.86;101036.79;1766849;79;21255;-64
2022/11/26 08:04:24;;;;;;;10.53;7.12;;;;;;;3.86;72.08;101031.89;1761700;79;21114;-64
2022/11/26 08:06:50;;;;;;;7.28;3.17;;;;;;;3.82;72.28;101036.84;1772993;79;21023;-61
2022/11/26 08:09:17;;;;;;;7.65;3.75;;;;;;;3.81;72.31;101040.34;1756150;79;21056;-62
2022/11/26 08:11:44;;;;;;;6.60;2.70;;;;;;;3.86;72.33;101039.70;1758838;80;21067;-63
2022/11/26 08:14:11;;;;;;;8.28;3.67;;;;;;;3.93;72.17;101049.88;1728994;81;21261;-63
2022/11/26 08:16:38;;;;;;;12.28;7.95;;;;;;;3.86;72.34;101037.09;1760489;80;21257;-63
2022/11/26 08:19:09;;;;;;;9.58;4.17;;;;;;;3.89;72.69;101042.18;1761223;79;21059;-67
2022/11/26 08:21:37;;;;;;;8.18;4.33;;;;;;;3.94;72.41;101046.37;1752222;80;21034;-69
2022/11/26 08:24:05;;;;;;;7.00;3.47;;;;;;;3.93;72.30;101044.20;1762501;79;21615;-68
2022/11/26 08:26:32;;;;;;;8.53;3.22;;;;;;;3.98;72.08;101047.45;1757844;80;21884;-68
2022/11/26 08:28:59;;;;;;;11.22;6.70;;;;;;;4.01;72.08;101042.59;1762194;79;21027;-68
2022/11/26 08:31:26;;;;;;;7.83;3.27;;;;;;;4.01;72.15;101045.19;1757518;79;21050;-68
2022/11/26 08:33:58;;;;;;;12.53;7.62;;;;;;;4.01;72.32;101052.54;1755519;79;21598;-68
2022/11/26 08:36:26;;;;;;;8.03;3.58;;;;;;;4.01;72.18;101050.40;1762003;80;21122;-67
2022/11/26 08:38:52;;;;;;;6.30;3.58;;;;;;;4.02;72.07;101053.41;1760789;79;21253;-67
2022/11/26 08:41:18;;;;;;;10.43;4.20;;;;;;;4.07;72.06;101054.89;1759808;79;21531;-69
2022/11/26 08:43:45;;;;;;;8.45;3.87;;;;;;;4.14;72.34;101052.88;1748248;79;21297;-67
2022/11/26 08:46:12;;;;;;;14.38;7.00;;;;;;;4.22;72.82;101054.70;1768058;79;21599;-68
2022/11/26 08:48:38;;;;;;;7.28;3.60;;;;;;;4.25;72.39;101053.71;1762506;79;21101;-69
2022/11/26 08:51:08;;;;;;;11.60;6.45;;;;;;;4.21;71.96;101059.52;1767339;79;21169;-67
2022/11/26 08:53:35;;;;;;;7.08;3.05;;;;;;;4.16;71.74;101060.63;1766041;79;21627;-69
2022/11/26 08:56:10;;;;;;;8.60;4.10;;;;;;;4.15;71.53;101050.64;1757794;79;21042;-68
2022/11/26 08:58:40;;;;;;;8.18;3.62;;;;;;;4.18;71.61;101052.29;1763312;79;21024;-69
2022/11/26 09:01:09;;;;;;;8.53;4.25;;;;;;;4.16;71.80;101056.26;1766442;79;21598;-69
2022/11/26 09:03:36;;;;;;;12.00;7.35;;;;;;;4.12;71.81;101059.92;1761965;80;22344;-68
2022/11/26 09:06:04;;;;;;;9.03;4.40;;;;;;;4.08;71.93;101064.41;1760585;79;21485;-68
2022/11/26 09:08:33;;;;;;;7.10;3.42;;;;;;;4.06;71.82;101064.91;1752924;80;21032;-69
2022/11/26 09:11:00;;;;;;;9.45;4.28;;;;;;;4.12;71.63;101066.86;1762047;79;21074;-68
2022/11/26 09:13:27;;;;;;;11.08;7.50;;;;;;;4.12;71.65;101075.98;1762977;80;21060;-69
2022/11/26 09:15:53;;;;;;;7.62;3.27;;;;;;;4.13;71.82;101076.38;1764016;79;22197;-67
2022/11/26 09:18:20;;;;;;;8.50;4.20;;;;;;;4.14;71.97;101076.33;1759570;79;21036;-67
2022/11/26 09:20:46;;;;;;;13.03;7.53;;;;;;;4.07;71.71;101078.34;1754749;80;21046;-66
2022/11/26 09:23:13;;;;;;;7.25;3.20;;;;;;;4.05;72.01;101080.59;1755496;79;21019;-67
2022/11/26 09:25:39;;;;;;;9.78;4.65;;;;;;;4.07;72.05;101083.55;1762015;79;21122;-67
2022/11/26 09:28:06;;;;;;;11.88;6.10;;;;;;;4.12;71.68;101082.06;1760149;80;21149;-68
2022/11/26 09:30:33;;;;;;;12.05;6.85;;;;;;;4.16;71.61;101092.73;1760337;80;21067;-68
2022/11/26 09:32:59;;;;;;;8.70;4.83;;;;;;;4.23;71.75;101091.55;1757207;79;21044;-68
2022/11/26 09:35:26;;;;;;;7.85;3.37;;;;;;;4.30;71.83;101093.91;1755712;80;21054;-68
2022/11/26 09:37:54;;;;;;;9.75;4.85;;;;;;;4.28;71.59;101095.27;1759196;79;21043;-67
2022/11/26 09:40:21;;;;;;;11.93;8.08;;;;;;;4.27;71.62;101089.22;1697277;83;21261;-68
2022/11/26 09:43:05;;;;;;;8.50;3.60;;;;;;;4.28;71.57;101088.75;1749846;79;21003;-68
2022/11/26 09:45:40;;;;;;;8.30;3.58;;;;;;;4.30;71.50;101092.60;1757717;80;20980;-67
2022/11/26 09:49:00;;;;;;;9.80;4.45;;;;;;;4.24;71.89;101089.34;1792247;77;22415;-60
2022/11/26 09:51:27;;;;;;;12.95;7.70;;;;;;;4.42;71.44;101094.67;1772150;80;21766;-61
2022/11/26 09:53:53;;;;;;;8.93;4.17;;;;;;;4.44;71.27;101102.83;1769163;78;21878;-61
2022/11/26 09:56:23;;;;;;;12.98;8.00;;;;;;;4.43;70.97;101096.38;1768614;78;21002;-60
2022/11/26 09:59:00;;;;;;;10.43;4.22;;;;;;;4.38;71.02;101099.17;1772672;78;21072;-60
2022/11/26 10:01:26;;;;;;;;;;;;;;;4.33;71.03;101103.73;1778833;79;21032;-61
2022/11/26 10:03:52;;;;;;;;;;;;;;;4.30;70.98;101104.33;1773608;79;20194;-61
2022/11/26 10:06:49;;;;;;;9.88;3.80;;;;;;;4.32;70.82;101109.88;1773614;79;21145;-60
2022/11/26 10:09:46;;;;;;;10.80;4.00;;;;;;;4.36;70.83;101106.69;1765138;78;21367;-61
2022/11/26 10:12:31;;;;;;;9.65;4.15;;;;;;;4.38;71.05;101110.06;1773761;78;21065;-62
2022/11/26 10:15:16;;;;;;;11.85;7.55;;;;;;;4.35;71.00;101111.02;1765219;79;21133;-62
2022/11/26 10:18:03;;;;;;;7.78;3.17;;;;;;;4.35;71.11;101113.62;1774497;78;21041;-61
2022/11/26 10:21:05;;;;;;;8.15;3.45;;;;;;;4.34;71.06;101115.86;1774983;79;21252;-62
2022/11/26 10:23:51;;;;;;;7.53;3.87;;;;;;;4.32;70.82;101119.43;1772531;79;21126;-62
2022/11/26 10:26:27;;;;;;;;;;;;;;;4.34;70.63;101120.20;1773292;78;21027;-62
2022/11/26 10:29:05;;;;;;;6.15;2.87;;;;;;;4.40;70.66;101121.27;1766941;78;20160;-62
2022/11/26 10:31:33;;;;;;;6.42;3.17;;;;;;;4.41;70.56;101127.71;1739076;79;21351;-62
2022/11/26 10:34:02;;;;;;;8.48;3.42;;;;;;;4.25;70.47;101121.02;1758088;80;21319;-62
2022/11/26 10:36:39;;;;;;;11.22;6.70;;;;;;;4.13;70.79;101114.98;1770231;78;21053;-62
2022/11/26 10:39:06;;;;;;;6.15;3.00;;;;;;;4.02;70.84;101119.35;1735695;81;21063;-62
2022/11/26 10:41:34;;;;;;;8.08;3.55;;;;;;;3.91;71.17;101123.67;1722383;82;21082;-60
2022/11/26 10:44:34;;;;;;;5.90;3.10;;;;;;;3.86;71.62;101124.31;1702277;82;21585;-59
2022/11/26 10:47:30;;;;;;;9.53;4.30;;;;;;;3.90;71.78;101118.09;1721595;81;21300;-61
2022/11/26 10:50:10;;;;;;;6.42;2.90;;;;;;;3.98;71.67;101131.25;1776541;79;21094;-61
2022/11/26 10:52:37;;;;;;;9.35;4.40;;;;;;;4.04;71.70;101125.80;1760779;79;21090;-62
2022/11/26 10:55:29;;;;;;;8.55;3.70;;;;;;;4.09;71.58;101132.97;1712054;82;21140;-62
2022/11/26 10:58:01;;;;;;;8.70;4.15;;;;;;;4.13;71.73;101129.78;1763521;79;21106;-61
2022/11/26 11:00:37;;;;;;;8.88;4.05;;;;;;;4.13;71.72;101131.92;1767748;79;21792;-62
2022/11/26 11:03:09;;;;;;;11.33;6.25;;;;;;;4.13;71.70;101135.83;1762235;80;21022;-61
2022/11/26 11:05:38;;;;;;;7.20;3.45;;;;;;;4.11;71.58;101133.75;1765474;80;21078;-61
2022/11/26 11:08:04;;;;;;;7.45;3.55;;;;;;;4.14;71.54;101145.81;1778558;79;21085;-61
2022/11/26 11:10:31;;;;;;;11.83;6.85;;;;;;;4.21;71.31;101143.34;1777387;79;21607;-61
2022/11/26 11:13:13;;;;;;;8.98;3.10;;;;;;;4.24;71.14;101147.96;1770895;79;21616;-62
2022/11/26 11:15:40;;;;;;;9.50;4.50;;;;;;;4.25;71.00;101143.16;1768519;79;21471;-62
2022/11/26 11:18:21;;;;;;;8.78;3.92;;;;;;;4.24;71.21;101146.66;1777628;79;21656;-61
2022/11/26 11:20:54;;;;;;;8.98;4.25;;;;;;;4.25;71.19;101148.37;1766011;79;21125;-61
2022/11/26 11:23:28;;;;;;;8.83;4.22;;;;;;;4.23;71.18;101146.25;1771413;79;20990;-61
2022/11/26 11:26:17;;;;;;;10.55;7.17;;;;;;;4.22;70.89;101151.53;1762571;79;21152;-61
2022/11/26 11:28:52;;;;;;;7.00;3.37;;;;;;;4.12;70.84;101152.39;1759283;79;21106;-62
2022/11/26 11:31:25;;;;;;;9.18;3.67;;;;;;;4.13;70.85;101158.44;1759955;80;21485;-60
2022/11/26 11:34:11;;;;;;;10.23;4.12;;;;;;;4.13;70.69;101160.57;1758465;79;22344;-61
2022/11/26 11:36:39;;;;;;;8.65;3.58;;;;;;;4.16;70.74;101168.27;1748219;79;21342;-61
2022/11/26 11:39:09;;;;;;;10.95;7.35;;;;;;;4.12;70.72;101169.31;1775077;79;21233;-61
2022/11/26 11:41:45;;;;;;;8.50;3.45;;;;;;;4.12;70.86;101181.03;1732434;80;21743;-63
2022/11/26 11:44:23;;;;;;;8.88;4.58;;;;;;;4.06;70.67;101181.27;1775437;79;21050;-63
2022/11/26 11:47:32;;;;;;;11.08;4.50;;;;;;;4.01;71.02;101187.13;1777940;79;21023;-63
2022/11/26 11:50:22;;;;;;;11.75;6.97;;;;;;;4.08;70.76;101190.73;1765063;79;21750;-63
2022/11/26 11:53:31;;;;;;;8.90;3.87;;;;;;;4.14;70.50;101191.39;1770636;79;21137;-63
2022/11/26 11:56:40;;;;;;;8.30;3.85;;;;;;;4.15;70.30;101187.40;1685628;82;20988;-63